KAVP/AVP METAR and TAF weather

Enter ICAO airport designator
Station Type Date Time Source
KAVP METAR 2019/08/21 01:54 UTC NOAA

KAVP 210154Z 00000KT 10SM SCT055 24/21 A3006 RMK AO2 SLP168 T02440211


Station Type Date Time Source
KAVP Decoded METAR 2019/08/21 01:54 UTC NOAA

Station name not available
Aug 20, 2019 - 09:54 PM EDT / 2019.08.21 0154 UTC
Wind: Calm:0
Visibility: 10 mile(s):0
Sky conditions: partly cloudy
Temperature: 75.9 F (24.4 C)
Dew Point: 70.0 F (21.1 C)
Relative Humidity: 81%
Pressure (altimeter): 30.06 in. Hg (1017 hPa)
ob: KAVP 210154Z 00000KT 10SM SCT055 24/21 A3006 RMK AO2 SLP168 T02440211
cycle: 2

Station Type Date Time Source
KAVP TAF 2019/08/20 18:34 UTC NOAA

TAF KAVP 201731Z 2018/2118 VRB03KT P6SM FEW050 SCT250
FM210700 VRB03KT P6SM BKN050
TEMPO 2110/2114 4SM TSRA OVC012CB
FM211400 20006KT P6SM -SHRA BKN017

Example: see airport list